SBI250 UNKL-UNNT
Flight info
| Callsign | SBI250 |
|---|---|
| Flight time | 1h 2m |
| Altitude | 36000 |
| Route | APRUS2F APRUS B926 NATIR NATIR1K |
| Aircraft | A319/M-SDE3FGHIRWY/LB1 |
Departure
| Time | 2026-05-06 15:11 |
|---|---|
| Airport | Krasnoyarsk International Airport (UNKL) |
Arrival
| Time | 2026-05-06 16:14 |
|---|---|
| Airport | Novosibirsk Tolmachevo Airport (UNNT) |
| Time | Latitude | Longitude | Altitude | Speed | Heading |
|---|---|---|---|---|---|
| 2026-05-06 14:47 | 56.17941 | 92.48532 | 952 ft | 0 kts | 22° |
| 2026-05-06 15:02 | 56.17928 | 92.48523 | 950 ft | 3 kts | 22° |
| 2026-05-06 15:02 | 56.17911 | 92.48510 | 950 ft | 3 kts | 22° |
| 2026-05-06 15:03 | 56.17893 | 92.48498 | 950 ft | 3 kts | 25° |
| 2026-05-06 15:03 | 56.17875 | 92.48491 | 951 ft | 3 kts | 340° |
| 2026-05-06 15:03 | 56.17864 | 92.48500 | 948 ft | 0 kts | 311° |
| 2026-05-06 15:05 | 56.17864 | 92.48499 | 948 ft | 1 kts | 310° |
| 2026-05-06 15:05 | 56.17864 | 92.48482 | 951 ft | 1 kts | 269° |
| 2026-05-06 15:06 | 56.17852 | 92.48471 | 950 ft | 3 kts | 213° |
| 2026-05-06 15:06 | 56.17822 | 92.48442 | 951 ft | 7 kts | 202° |
| 2026-05-06 15:06 | 56.17770 | 92.48407 | 951 ft | 9 kts | 193° |
| 2026-05-06 15:06 | 56.17720 | 92.48482 | 951 ft | 11 kts | 120° |
| 2026-05-06 15:07 | 56.17685 | 92.48619 | 950 ft | 14 kts | 113° |
| 2026-05-06 15:07 | 56.17643 | 92.48792 | 951 ft | 17 kts | 113° |
| 2026-05-06 15:07 | 56.17593 | 92.49000 | 951 ft | 20 kts | 113° |
| 2026-05-06 15:07 | 56.17536 | 92.49241 | 951 ft | 22 kts | 113° |
| 2026-05-06 15:08 | 56.17470 | 92.49514 | 949 ft | 25 kts | 113° |
| 2026-05-06 15:08 | 56.17398 | 92.49818 | 951 ft | 28 kts | 112° |
| 2026-05-06 15:08 | 56.17318 | 92.50152 | 951 ft | 30 kts | 113° |
| 2026-05-06 15:08 | 56.17231 | 92.50515 | 951 ft | 33 kts | 113° |
| 2026-05-06 15:09 | 56.17137 | 92.50905 | 950 ft | 35 kts | 113° |
| 2026-05-06 15:09 | 56.17038 | 92.51322 | 950 ft | 38 kts | 112° |
| 2026-05-06 15:09 | 56.16954 | 92.51680 | 951 ft | 24 kts | 114° |
| 2026-05-06 15:09 | 56.16875 | 92.51941 | 950 ft | 21 kts | 153° |
| 2026-05-06 15:10 | 56.16773 | 92.52013 | 950 ft | 17 kts | 158° |
| 2026-05-06 15:10 | 56.16663 | 92.52014 | 952 ft | 17 kts | 231° |
| 2026-05-06 15:10 | 56.16660 | 92.51978 | 952 ft | 0 kts | 298° |
| 2026-05-06 15:10 | 56.16661 | 92.51972 | 952 ft | 0 kts | 295° |
| 2026-05-06 15:11 | 56.16699 | 92.51818 | 952 ft | 50 kts | 293° |
| 2026-05-06 15:11 | 56.16954 | 92.50736 | 954 ft | 135 kts | 293° |
| 2026-05-06 15:11 | 56.17403 | 92.48830 | 1316 ft | 168 kts | 292° |
| 2026-05-06 15:11 | 56.17891 | 92.46932 | 2112 ft | 173 kts | 294° |
| 2026-05-06 15:12 | 56.18458 | 92.44929 | 2895 ft | 181 kts | 291° |
| 2026-05-06 15:12 | 56.18975 | 92.42774 | 3283 ft | 200 kts | 288° |
| 2026-05-06 15:12 | 56.19525 | 92.40292 | 3675 ft | 225 kts | 288° |
| 2026-05-06 15:12 | 56.20135 | 92.37549 | 4170 ft | 249 kts | 288° |
| 2026-05-06 15:13 | 56.20806 | 92.34601 | 4998 ft | 257 kts | 289° |
| 2026-05-06 15:13 | 56.21483 | 92.31665 | 6011 ft | 258 kts | 288° |
| 2026-05-06 15:13 | 56.21716 | 92.28498 | 6922 ft | 260 kts | 262° |
| 2026-05-06 15:13 | 56.21250 | 92.25365 | 7864 ft | 262 kts | 250° |
| 2026-05-06 15:14 | 56.20532 | 92.22325 | 8804 ft | 266 kts | 246° |
| 2026-05-06 15:14 | 56.19747 | 92.19293 | 9713 ft | 270 kts | 246° |
| 2026-05-06 15:14 | 56.18953 | 92.16169 | 10355 ft | 284 kts | 247° |
| 2026-05-06 15:14 | 56.18135 | 92.12793 | 10715 ft | 304 kts | 248° |
| 2026-05-06 15:15 | 56.17312 | 92.09235 | 11413 ft | 312 kts | 249° |
| 2026-05-06 15:15 | 56.16504 | 92.05606 | 12215 ft | 316 kts | 250° |
| 2026-05-06 15:15 | 56.15699 | 92.01915 | 13027 ft | 319 kts | 250° |
| 2026-05-06 15:15 | 56.14893 | 91.98175 | 13822 ft | 323 kts | 251° |
| 2026-05-06 15:16 | 56.14081 | 91.94397 | 14519 ft | 327 kts | 251° |
| 2026-05-06 15:16 | 56.13256 | 91.90578 | 15225 ft | 330 kts | 251° |
| 2026-05-06 15:16 | 56.12421 | 91.86733 | 15922 ft | 333 kts | 251° |
| 2026-05-06 15:16 | 56.11578 | 91.82851 | 16618 ft | 336 kts | 250° |
| 2026-05-06 15:17 | 56.10724 | 91.78931 | 17333 ft | 339 kts | 250° |
| 2026-05-06 15:17 | 56.09863 | 91.74985 | 18023 ft | 342 kts | 250° |
| 2026-05-06 15:17 | 56.08988 | 91.71004 | 18669 ft | 345 kts | 250° |
| 2026-05-06 15:17 | 56.08106 | 91.67006 | 19297 ft | 346 kts | 250° |
| 2026-05-06 15:18 | 56.07220 | 91.62989 | 19955 ft | 348 kts | 250° |
| 2026-05-06 15:18 | 56.06328 | 91.58954 | 20609 ft | 349 kts | 250° |
| 2026-05-06 15:18 | 56.05431 | 91.54905 | 21259 ft | 351 kts | 250° |
| 2026-05-06 15:18 | 56.04532 | 91.50845 | 21900 ft | 352 kts | 251° |
| 2026-05-06 15:19 | 56.03627 | 91.46763 | 22526 ft | 354 kts | 250° |
| 2026-05-06 15:19 | 56.02715 | 91.42661 | 23151 ft | 356 kts | 251° |
| 2026-05-06 15:19 | 56.01809 | 91.38588 | 23704 ft | 358 kts | 250° |
| 2026-05-06 15:19 | 56.00879 | 91.34431 | 24197 ft | 360 kts | 250° |
| 2026-05-06 15:20 | 55.99947 | 91.30266 | 24678 ft | 363 kts | 250° |
| 2026-05-06 15:20 | 55.99005 | 91.26059 | 25154 ft | 365 kts | 250° |
| 2026-05-06 15:20 | 55.98207 | 91.21760 | 25615 ft | 365 kts | 258° |
| 2026-05-06 15:20 | 55.97688 | 91.17300 | 26066 ft | 367 kts | 259° |
| 2026-05-06 15:21 | 55.97170 | 91.12825 | 26531 ft | 369 kts | 259° |
| 2026-05-06 15:21 | 55.96645 | 91.08331 | 26978 ft | 371 kts | 259° |
| 2026-05-06 15:21 | 55.96119 | 91.03855 | 27415 ft | 374 kts | 259° |
| 2026-05-06 15:21 | 55.95572 | 90.99244 | 27858 ft | 376 kts | 259° |
| 2026-05-06 15:22 | 55.95026 | 90.94672 | 28297 ft | 378 kts | 259° |
| 2026-05-06 15:22 | 55.94483 | 90.90132 | 28712 ft | 381 kts | 259° |
| 2026-05-06 15:22 | 55.93928 | 90.85500 | 29136 ft | 383 kts | 259° |
| 2026-05-06 15:22 | 55.93367 | 90.80836 | 29548 ft | 385 kts | 259° |
| 2026-05-06 15:23 | 55.92803 | 90.76150 | 29961 ft | 388 kts | 259° |
| 2026-05-06 15:23 | 55.92235 | 90.71444 | 30306 ft | 390 kts | 259° |
| 2026-05-06 15:23 | 55.91663 | 90.66703 | 30637 ft | 392 kts | 259° |
| 2026-05-06 15:23 | 55.91086 | 90.61951 | 30972 ft | 394 kts | 258° |
| 2026-05-06 15:24 | 55.90501 | 90.57168 | 31300 ft | 396 kts | 258° |
| 2026-05-06 15:24 | 55.89912 | 90.52362 | 31633 ft | 397 kts | 258° |
| 2026-05-06 15:24 | 55.89325 | 90.47572 | 32088 ft | 395 kts | 258° |
| 2026-05-06 15:24 | 55.88737 | 90.42794 | 32563 ft | 394 kts | 258° |
| 2026-05-06 15:25 | 55.88151 | 90.38038 | 33016 ft | 392 kts | 258° |
| 2026-05-06 15:25 | 55.87566 | 90.33300 | 33467 ft | 391 kts | 258° |
| 2026-05-06 15:25 | 55.86978 | 90.28573 | 33906 ft | 390 kts | 258° |
| 2026-05-06 15:25 | 55.86387 | 90.23856 | 34263 ft | 390 kts | 258° |
| 2026-05-06 15:26 | 55.85795 | 90.19136 | 34563 ft | 391 kts | 258° |
| 2026-05-06 15:26 | 55.85200 | 90.14402 | 34847 ft | 392 kts | 258° |
| 2026-05-06 15:26 | 55.84604 | 90.09664 | 35114 ft | 393 kts | 258° |
| 2026-05-06 15:26 | 55.84003 | 90.04904 | 35375 ft | 395 kts | 258° |
| 2026-05-06 15:27 | 55.83395 | 90.00136 | 35636 ft | 396 kts | 258° |
| 2026-05-06 15:27 | 55.82992 | 89.96977 | 35799 ft | 396 kts | 258° |
| 2026-05-06 15:27 | 55.82380 | 89.92189 | 35906 ft | 396 kts | 258° |
| 2026-05-06 15:28 | 55.81161 | 89.82738 | 35927 ft | 390 kts | 258° |
| 2026-05-06 15:28 | 55.79944 | 89.73356 | 35923 ft | 389 kts | 258° |
| 2026-05-06 15:29 | 55.78728 | 89.63979 | 35920 ft | 389 kts | 258° |
| 2026-05-06 15:29 | 55.77494 | 89.54554 | 35920 ft | 398 kts | 258° |
| 2026-05-06 15:30 | 55.76212 | 89.44798 | 35921 ft | 412 kts | 258° |
| 2026-05-06 15:30 | 55.74876 | 89.34730 | 35919 ft | 424 kts | 257° |
| 2026-05-06 15:31 | 55.73517 | 89.24546 | 35921 ft | 428 kts | 257° |
| 2026-05-06 15:31 | 55.72136 | 89.14266 | 35918 ft | 428 kts | 257° |
| 2026-05-06 15:32 | 55.70030 | 88.98862 | 35915 ft | 428 kts | 257° |
| 2026-05-06 15:32 | 55.68633 | 88.88605 | 35915 ft | 428 kts | 257° |
| 2026-05-06 15:33 | 55.67233 | 88.78341 | 35910 ft | 428 kts | 257° |
| 2026-05-06 15:33 | 55.65828 | 88.68095 | 35912 ft | 428 kts | 257° |
| 2026-05-06 15:34 | 55.64409 | 88.57853 | 35911 ft | 427 kts | 257° |
| 2026-05-06 15:34 | 55.63706 | 88.52812 | 35908 ft | 413 kts | 257° |
| 2026-05-06 15:34 | 55.63028 | 88.47978 | 35910 ft | 398 kts | 257° |
| 2026-05-06 15:35 | 55.61705 | 88.38603 | 35913 ft | 390 kts | 257° |
| 2026-05-06 15:35 | 55.60394 | 88.29318 | 35916 ft | 388 kts | 257° |
| 2026-05-06 15:36 | 55.59080 | 88.20060 | 35918 ft | 388 kts | 257° |
| 2026-05-06 15:36 | 55.57764 | 88.10870 | 35916 ft | 388 kts | 257° |
| 2026-05-06 15:37 | 55.56437 | 88.01628 | 35917 ft | 388 kts | 256° |
| 2026-05-06 15:37 | 55.55078 | 87.92253 | 35919 ft | 401 kts | 256° |
| 2026-05-06 15:38 | 55.53658 | 87.82550 | 35917 ft | 415 kts | 256° |
| 2026-05-06 15:38 | 55.52195 | 87.72549 | 35916 ft | 426 kts | 256° |
| 2026-05-06 15:39 | 55.50708 | 87.62399 | 35920 ft | 428 kts | 256° |
| 2026-05-06 15:39 | 55.49192 | 87.52229 | 35920 ft | 428 kts | 256° |
| 2026-05-06 15:40 | 55.47661 | 87.42088 | 35919 ft | 430 kts | 256° |
| 2026-05-06 15:40 | 55.46120 | 87.31928 | 35921 ft | 429 kts | 256° |
| 2026-05-06 15:41 | 55.44583 | 87.21770 | 35916 ft | 429 kts | 256° |
| 2026-05-06 15:41 | 55.43030 | 87.11626 | 35916 ft | 429 kts | 255° |
| 2026-05-06 15:42 | 55.41463 | 87.01471 | 35912 ft | 430 kts | 255° |
| 2026-05-06 15:42 | 55.39889 | 86.91330 | 35912 ft | 430 kts | 255° |
| 2026-05-06 15:43 | 55.38319 | 86.81262 | 35912 ft | 430 kts | 255° |
| 2026-05-06 15:43 | 55.36726 | 86.71111 | 35905 ft | 430 kts | 255° |
| 2026-05-06 15:44 | 55.35129 | 86.60959 | 35901 ft | 431 kts | 255° |
| 2026-05-06 15:44 | 55.33519 | 86.50820 | 35894 ft | 431 kts | 255° |
| 2026-05-06 15:45 | 55.31912 | 86.40767 | 35894 ft | 416 kts | 255° |
| 2026-05-06 15:45 | 55.31142 | 86.35968 | 35895 ft | 402 kts | 255° |
| 2026-05-06 15:45 | 55.30388 | 86.31295 | 35894 ft | 395 kts | 255° |
| 2026-05-06 15:46 | 55.28888 | 86.22059 | 35891 ft | 393 kts | 255° |
| 2026-05-06 15:46 | 55.27391 | 86.12847 | 35893 ft | 393 kts | 256° |
| 2026-05-06 15:47 | 55.26898 | 86.08145 | 35772 ft | 393 kts | 264° |
| 2026-05-06 15:47 | 55.26686 | 86.03382 | 35528 ft | 392 kts | 265° |
| 2026-05-06 15:47 | 55.26477 | 85.98626 | 35283 ft | 391 kts | 265° |
| 2026-05-06 15:47 | 55.26260 | 85.93892 | 34891 ft | 387 kts | 265° |
| 2026-05-06 15:48 | 55.26037 | 85.89213 | 34396 ft | 384 kts | 264° |
| 2026-05-06 15:48 | 55.25810 | 85.84554 | 33900 ft | 382 kts | 264° |
| 2026-05-06 15:48 | 55.25587 | 85.79997 | 33368 ft | 378 kts | 264° |
| 2026-05-06 15:48 | 55.25361 | 85.75431 | 32888 ft | 374 kts | 264° |
| 2026-05-06 15:49 | 55.25135 | 85.70925 | 32402 ft | 370 kts | 264° |
| 2026-05-06 15:49 | 55.24909 | 85.66461 | 31939 ft | 366 kts | 263° |
| 2026-05-06 15:49 | 55.24682 | 85.62042 | 31481 ft | 362 kts | 263° |
| 2026-05-06 15:49 | 55.24457 | 85.57669 | 31028 ft | 358 kts | 263° |
| 2026-05-06 15:50 | 55.24235 | 85.53339 | 30590 ft | 354 kts | 263° |
| 2026-05-06 15:50 | 55.24014 | 85.49067 | 30165 ft | 350 kts | 262° |
| 2026-05-06 15:50 | 55.23794 | 85.44835 | 29694 ft | 347 kts | 262° |
| 2026-05-06 15:50 | 55.23576 | 85.40651 | 29275 ft | 342 kts | 262° |
| 2026-05-06 15:51 | 55.23362 | 85.36528 | 28869 ft | 337 kts | 262° |
| 2026-05-06 15:51 | 55.23151 | 85.32465 | 28486 ft | 333 kts | 262° |
| 2026-05-06 15:51 | 55.22939 | 85.28444 | 28099 ft | 330 kts | 262° |
| 2026-05-06 15:51 | 55.22724 | 85.24464 | 27717 ft | 326 kts | 262° |
| 2026-05-06 15:52 | 55.22511 | 85.20529 | 27330 ft | 322 kts | 262° |
| 2026-05-06 15:52 | 55.22298 | 85.16653 | 26947 ft | 318 kts | 262° |
| 2026-05-06 15:52 | 55.22086 | 85.12816 | 26564 ft | 315 kts | 262° |
| 2026-05-06 15:52 | 55.21873 | 85.08966 | 26061 ft | 321 kts | 262° |
| 2026-05-06 15:53 | 55.21654 | 85.05046 | 25489 ft | 324 kts | 263° |
| 2026-05-06 15:53 | 55.21433 | 85.01103 | 24929 ft | 326 kts | 263° |
| 2026-05-06 15:53 | 55.21210 | 84.97135 | 24377 ft | 328 kts | 263° |
| 2026-05-06 15:53 | 55.20986 | 84.93157 | 23834 ft | 329 kts | 263° |
| 2026-05-06 15:54 | 55.20762 | 84.89160 | 23258 ft | 329 kts | 263° |
| 2026-05-06 15:54 | 55.20540 | 84.85207 | 22627 ft | 325 kts | 263° |
| 2026-05-06 15:54 | 55.20317 | 84.81285 | 22006 ft | 322 kts | 263° |
| 2026-05-06 15:54 | 55.20096 | 84.77452 | 21412 ft | 320 kts | 263° |
| 2026-05-06 15:55 | 55.19871 | 84.73575 | 20823 ft | 321 kts | 263° |
| 2026-05-06 15:55 | 55.19597 | 84.69686 | 20228 ft | 323 kts | 258° |
| 2026-05-06 15:55 | 55.18995 | 84.65913 | 19667 ft | 321 kts | 253° |
| 2026-05-06 15:55 | 55.18345 | 84.62183 | 19101 ft | 319 kts | 253° |
| 2026-05-06 15:56 | 55.17705 | 84.58481 | 18555 ft | 317 kts | 253° |
| 2026-05-06 15:56 | 55.17072 | 84.54801 | 17995 ft | 315 kts | 254° |
| 2026-05-06 15:56 | 55.16444 | 84.51150 | 17372 ft | 313 kts | 253° |
| 2026-05-06 15:56 | 55.15818 | 84.47514 | 16761 ft | 312 kts | 253° |
| 2026-05-06 15:57 | 55.15190 | 84.43882 | 15982 ft | 312 kts | 253° |
| 2026-05-06 15:57 | 55.14561 | 84.40250 | 15241 ft | 312 kts | 253° |
| 2026-05-06 15:57 | 55.13935 | 84.36654 | 14630 ft | 308 kts | 253° |
| 2026-05-06 15:57 | 55.13314 | 84.33099 | 14034 ft | 304 kts | 253° |
| 2026-05-06 15:58 | 55.12701 | 84.29588 | 13406 ft | 301 kts | 253° |
| 2026-05-06 15:58 | 55.12092 | 84.26113 | 12748 ft | 297 kts | 253° |
| 2026-05-06 15:58 | 55.11490 | 84.22673 | 12089 ft | 295 kts | 253° |
| 2026-05-06 15:58 | 55.10894 | 84.19269 | 11459 ft | 292 kts | 253° |
| 2026-05-06 15:59 | 55.10301 | 84.15899 | 10842 ft | 289 kts | 253° |
| 2026-05-06 15:59 | 55.09710 | 84.12563 | 10232 ft | 286 kts | 253° |
| 2026-05-06 15:59 | 55.09123 | 84.09259 | 9610 ft | 284 kts | 253° |
| 2026-05-06 15:59 | 55.08540 | 84.05986 | 8974 ft | 280 kts | 254° |
| 2026-05-06 16:00 | 55.08020 | 84.02791 | 8805 ft | 270 kts | 260° |
| 2026-05-06 16:00 | 55.07794 | 83.99556 | 8678 ft | 269 kts | 265° |
| 2026-05-06 16:00 | 55.07605 | 83.96357 | 8550 ft | 268 kts | 265° |
| 2026-05-06 16:00 | 55.07410 | 83.93115 | 8423 ft | 268 kts | 265° |
| 2026-05-06 16:01 | 55.07211 | 83.89881 | 8297 ft | 268 kts | 265° |
| 2026-05-06 16:01 | 55.07013 | 83.86656 | 8173 ft | 267 kts | 265° |
| 2026-05-06 16:01 | 55.06815 | 83.83436 | 8045 ft | 266 kts | 265° |
| 2026-05-06 16:01 | 55.06613 | 83.80224 | 7927 ft | 266 kts | 265° |
| 2026-05-06 16:02 | 55.06411 | 83.77026 | 7905 ft | 266 kts | 265° |
| 2026-05-06 16:02 | 55.06210 | 83.73820 | 7912 ft | 265 kts | 265° |
| 2026-05-06 16:02 | 55.06009 | 83.70623 | 7913 ft | 265 kts | 265° |
| 2026-05-06 16:02 | 55.05807 | 83.67415 | 7917 ft | 266 kts | 265° |
| 2026-05-06 16:03 | 55.05603 | 83.64213 | 7904 ft | 265 kts | 265° |
| 2026-05-06 16:03 | 55.05401 | 83.61022 | 7910 ft | 265 kts | 265° |
| 2026-05-06 16:03 | 55.05197 | 83.57823 | 7917 ft | 265 kts | 265° |
| 2026-05-06 16:03 | 55.04989 | 83.54628 | 7917 ft | 265 kts | 265° |
| 2026-05-06 16:04 | 55.04780 | 83.51437 | 7912 ft | 265 kts | 265° |
| 2026-05-06 16:04 | 55.04570 | 83.48241 | 7914 ft | 265 kts | 265° |
| 2026-05-06 16:04 | 55.04360 | 83.45049 | 7914 ft | 265 kts | 265° |
| 2026-05-06 16:04 | 55.04153 | 83.41898 | 7914 ft | 265 kts | 265° |
| 2026-05-06 16:05 | 55.03943 | 83.38702 | 7703 ft | 267 kts | 265° |
| 2026-05-06 16:05 | 55.03806 | 83.35460 | 7219 ft | 267 kts | 269° |
| 2026-05-06 16:05 | 55.03757 | 83.32261 | 6959 ft | 259 kts | 270° |
| 2026-05-06 16:05 | 55.03733 | 83.29218 | 6823 ft | 241 kts | 271° |
| 2026-05-06 16:06 | 55.03713 | 83.26416 | 6701 ft | 222 kts | 271° |
| 2026-05-06 16:06 | 55.03695 | 83.23825 | 6532 ft | 206 kts | 271° |
| 2026-05-06 16:06 | 55.03676 | 83.21364 | 6170 ft | 201 kts | 271° |
| 2026-05-06 16:06 | 55.03655 | 83.18931 | 5718 ft | 200 kts | 271° |
| 2026-05-06 16:07 | 55.03636 | 83.16891 | 5339 ft | 199 kts | 271° |
| 2026-05-06 16:07 | 55.03611 | 83.14468 | 4749 ft | 206 kts | 270° |
| 2026-05-06 16:07 | 55.03586 | 83.11905 | 4323 ft | 212 kts | 270° |
| 2026-05-06 16:07 | 55.03558 | 83.09393 | 4181 ft | 204 kts | 270° |
| 2026-05-06 16:08 | 55.03529 | 83.06879 | 3678 ft | 213 kts | 270° |
| 2026-05-06 16:08 | 55.03499 | 83.04326 | 3371 ft | 206 kts | 270° |
| 2026-05-06 16:08 | 55.03469 | 83.01921 | 3240 ft | 191 kts | 270° |
| 2026-05-06 16:08 | 55.03438 | 82.99673 | 3164 ft | 183 kts | 270° |
| 2026-05-06 16:09 | 55.03408 | 82.97484 | 3056 ft | 179 kts | 270° |
| 2026-05-06 16:09 | 55.03380 | 82.95371 | 2992 ft | 168 kts | 270° |
| 2026-05-06 16:09 | 55.03353 | 82.93363 | 2916 ft | 163 kts | 270° |
| 2026-05-06 16:09 | 55.03328 | 82.91396 | 2861 ft | 162 kts | 271° |
| 2026-05-06 16:10 | 55.03296 | 82.89438 | 2780 ft | 162 kts | 269° |
| 2026-05-06 16:10 | 55.03200 | 82.87517 | 2622 ft | 152 kts | 266° |
| 2026-05-06 16:10 | 55.03077 | 82.85846 | 2453 ft | 132 kts | 265° |
| 2026-05-06 16:10 | 55.02953 | 82.84311 | 2291 ft | 124 kts | 265° |
| 2026-05-06 16:11 | 55.02829 | 82.82842 | 2131 ft | 121 kts | 265° |
| 2026-05-06 16:11 | 55.02704 | 82.81398 | 1980 ft | 120 kts | 264° |
| 2026-05-06 16:11 | 55.02578 | 82.79963 | 1822 ft | 120 kts | 264° |
| 2026-05-06 16:11 | 55.02452 | 82.78539 | 1660 ft | 119 kts | 264° |
| 2026-05-06 16:12 | 55.02325 | 82.77106 | 1493 ft | 120 kts | 264° |
| 2026-05-06 16:12 | 55.02196 | 82.75661 | 1328 ft | 121 kts | 263° |
| 2026-05-06 16:12 | 55.02065 | 82.74191 | 1162 ft | 124 kts | 263° |
| 2026-05-06 16:12 | 55.01931 | 82.72690 | 990 ft | 126 kts | 262° |
| 2026-05-06 16:13 | 55.01795 | 82.71174 | 816 ft | 128 kts | 262° |
| 2026-05-06 16:13 | 55.01660 | 82.69679 | 639 ft | 126 kts | 262° |
| 2026-05-06 16:13 | 55.01522 | 82.68141 | 465 ft | 125 kts | 262° |
| 2026-05-06 16:13 | 55.01400 | 82.66778 | 374 ft | 92 kts | 261° |
| 2026-05-06 16:14 | 55.01334 | 82.66046 | 373 ft | 51 kts | 261° |
| 2026-05-06 16:14 | 55.01281 | 82.65464 | 373 ft | 44 kts | 261° |
| 2026-05-06 16:14 | 55.01223 | 82.65042 | 372 ft | 15 kts | 216° |
| 2026-05-06 16:14 | 55.01167 | 82.65054 | 372 ft | 7 kts | 166° |
| 2026-05-06 16:15 | 55.01130 | 82.65069 | 373 ft | 0 kts | 168° |
| 2026-05-06 16:15 | 55.01119 | 82.65073 | 373 ft | 3 kts | 168° |
| 2026-05-06 16:16 | 55.01083 | 82.65086 | 373 ft | 7 kts | 169° |
| 2026-05-06 16:16 | 55.01019 | 82.65104 | 373 ft | 11 kts | 172° |
| 2026-05-06 16:16 | 55.00944 | 82.65128 | 373 ft | 5 kts | 160° |
| 2026-05-06 16:16 | 55.00932 | 82.65130 | 373 ft | 4 kts | 178° |
| 2026-05-06 16:17 | 55.00895 | 82.65145 | 373 ft | 7 kts | 139° |
| 2026-05-06 16:17 | 55.00885 | 82.65243 | 373 ft | 10 kts | 88° |
| 2026-05-06 16:17 | 55.00893 | 82.65389 | 373 ft | 14 kts | 81° |
| 2026-05-06 16:17 | 55.00910 | 82.65580 | 373 ft | 18 kts | 81° |
| 2026-05-06 16:18 | 55.00918 | 82.65684 | 373 ft | 20 kts | 82° |
| 2026-05-06 16:18 | 55.00950 | 82.66033 | 373 ft | 24 kts | 81° |
| 2026-05-06 16:18 | 55.00964 | 82.66187 | 373 ft | 9 kts | 78° |
| 2026-05-06 16:18 | 55.00965 | 82.66192 | 373 ft | 0 kts | 76° |
| 2026-05-06 16:19 | 55.00968 | 82.66197 | 373 ft | 2 kts | 60° |
| 2026-05-06 16:19 | 55.00984 | 82.66236 | 373 ft | 6 kts | 47° |
| 2026-05-06 16:19 | 55.01015 | 82.66317 | 373 ft | 10 kts | 69° |
| 2026-05-06 16:19 | 55.01029 | 82.66397 | 373 ft | 5 kts | 75° |
| 2026-05-06 16:20 | 55.01009 | 82.66451 | 373 ft | 7 kts | 158° |
| 2026-05-06 16:20 | 55.00981 | 82.66458 | 373 ft | 0 kts | 172° |
| 2026-05-06 16:20 | 55.00975 | 82.66460 | 373 ft | 0 kts | 172° |